Time;durP1;ratioP1;P1;durP2;ratioP2;P2;SDS_P1;SDS_P2;PMS_P1;PMS_P2;Temp;Humidity;BMP_temperature;BMP_pressure;BME280_temperature;BME280_humidity;BME280_pressure;Samples;Min_cycle;Max_cycle;Signal;HPM_P1;HPM_P2
2021/10/22 04:53:27;;;;;;;4.35;0.95;;;;;;;4.45;66.26;99683.44;5014618;28;106032;-70
2021/10/22 04:55:53;;;;;;;4.90;1.85;;;;;;;4.44;66.60;99677.28;5005763;28;105992;-71
2021/10/22 04:58:19;;;;;;;3.35;1.42;;;;;;;4.47;66.86;99681.47;5005240;28;106193;-71
2021/10/22 05:00:45;;;;;;;8.05;1.42;;;;;;;4.52;67.13;99677.41;5004746;28;106705;-67
2021/10/22 05:03:10;;;;;;;4.97;1.52;;;;;;;4.60;67.32;99684.63;5004923;28;106012;-69
2021/10/22 05:05:36;;;;;;;4.03;1.27;;;;;;;4.70;67.69;99682.78;5006023;28;105909;-68
2021/10/22 05:08:01;;;;;;;3.55;1.17;;;;;;;4.79;67.49;99683.72;5003836;28;106302;-68
2021/10/22 05:10:26;;;;;;;5.80;1.10;;;;;;;4.84;67.56;99684.13;5004494;28;111232;-68
2021/10/22 05:12:52;;;;;;;5.43;2.22;;;;;;;4.91;67.27;99684.38;5003488;28;105977;-69
2021/10/22 05:15:17;;;;;;;3.65;1.20;;;;;;;4.93;67.64;99682.41;5005001;28;105900;-67
2021/10/22 05:17:43;;;;;;;8.40;1.45;;;;;;;4.96;66.94;99682.13;5004902;28;107122;-67
2021/10/22 05:20:10;;;;;;;9.00;2.33;;;;;;;4.96;66.85;99679.50;5005073;28;106630;-67
2021/10/22 05:22:36;;;;;;;7.65;1.33;;;;;;;4.94;66.79;99683.25;5004133;28;106106;-69
2021/10/22 05:25:03;;;;;;;2.70;0.80;;;;;;;4.93;67.18;99692.97;5005593;28;106245;-68
2021/10/22 05:27:28;;;;;;;9.43;1.67;;;;;;;4.93;66.85;99698.25;5004026;28;106520;-69
2021/10/22 05:29:54;;;;;;;13.05;2.58;;;;;;;4.93;66.52;99707.97;4995826;28;105855;-69
2021/10/22 05:32:19;;;;;;;5.75;1.30;;;;;;;4.91;66.70;99703.66;4984071;28;105827;-69
2021/10/22 05:34:45;;;;;;;4.43;1.50;;;;;;;4.94;66.98;99710.47;4984768;28;105974;-69
2021/10/22 05:37:11;;;;;;;9.43;1.60;;;;;;;4.94;66.88;99704.38;4984751;28;106221;-67
2021/10/22 05:39:36;;;;;;;6.65;1.50;;;;;;;4.93;66.65;99705.34;4984702;28;106176;-70
2021/10/22 05:42:02;;;;;;;5.45;1.30;;;;;;;4.93;66.84;99714.06;4984642;28;105794;-69
2021/10/22 05:44:27;;;;;;;7.38;1.83;;;;;;;4.98;66.90;99711.00;4984676;28;105988;-68
2021/10/22 05:46:54;;;;;;;6.75;1.60;;;;;;;4.98;66.53;99711.00;4984218;28;106204;-71
2021/10/22 05:49:20;;;;;;;8.98;2.47;;;;;;;4.99;66.60;99710.88;4983977;28;105961;-70
2021/10/22 05:51:46;;;;;;;7.22;2.08;;;;;;;5.03;66.60;99714.03;4983788;28;106273;-69
2021/10/22 05:54:12;;;;;;;8.10;1.98;;;;;;;5.01;66.39;99722.09;4984829;28;105951;-69
2021/10/22 05:56:37;;;;;;;5.93;1.75;;;;;;;5.01;66.31;99722.09;4995508;28;106005;-69
2021/10/22 05:59:03;;;;;;;7.60;1.63;;;;;;;5.01;66.26;99716.81;5003988;28;107168;-70
2021/10/22 06:01:28;;;;;;;6.30;1.63;;;;;;;5.01;66.30;99719.47;5003786;28;106305;-69
2021/10/22 06:03:54;;;;;;;6.28;1.80;;;;;;;5.03;66.17;99714.03;4995853;28;106325;-68
2021/10/22 06:06:20;;;;;;;8.88;2.28;;;;;;;5.07;66.47;99713.59;4991080;28;106178;-66
2021/10/22 06:08:45;;;;;;;6.05;1.70;;;;;;;5.11;66.27;99711.47;4990838;28;106000;-68
2021/10/22 06:11:11;;;;;;;12.95;2.20;;;;;;;5.17;66.45;99720.66;4990504;28;106052;-67
2021/10/22 06:13:43;;;;;;;7.45;1.95;;;;;;;5.27;66.43;99716.13;4991348;28;106002;-66
2021/10/22 06:16:11;;;;;;;9.73;3.20;;;;;;;5.40;66.71;99721.91;4990269;28;105917;-68
2021/10/22 06:18:45;;;;;;;16.95;6.50;;;;;;;5.51;66.33;99728.78;4990277;28;106008;-66
2021/10/22 06:21:19;;;;;;;15.85;6.20;;;;;;;5.67;66.26;99740.50;4989658;28;106047;-67
2021/10/22 06:24:01;;;;;;;19.27;7.13;;;;;;;5.81;66.25;99736.50;4990907;28;105861;-67
2021/10/22 06:26:31;;;;;;;10.27;2.30;;;;;;;5.95;65.94;99741.28;4990268;28;106755;-67
2021/10/22 06:28:56;;;;;;;9.75;2.97;;;;;;;6.07;65.73;99745.38;4990271;28;105953;-68
2021/10/22 06:31:23;;;;;;;6.95;2.30;;;;;;;6.18;65.74;99748.78;4989931;28;106232;-69
2021/10/22 06:33:48;;;;;;;11.27;4.07;;;;;;;6.27;65.18;99755.78;4990450;28;106203;-70
2021/10/22 06:36:14;;;;;;;16.98;5.38;;;;;;;6.40;64.96;99753.59;4989449;28;106273;-71
2021/10/22 06:38:40;;;;;;;16.13;5.15;;;;;;;6.53;64.88;99741.78;4989978;28;105908;-70
2021/10/22 06:41:09;;;;;;;17.00;4.53;;;;;;;6.68;64.60;99742.84;4990078;28;106344;-69
2021/10/22 06:43:39;;;;;;;17.45;6.05;;;;;;;6.86;64.41;99749.91;4990853;28;105872;-69
2021/10/22 06:46:05;;;;;;;16.20;5.47;;;;;;;7.02;63.94;99757.13;4990143;28;106172;-66
2021/10/22 06:48:31;;;;;;;9.38;3.53;;;;;;;7.15;64.18;99748.72;4989928;28;105937;-68
2021/10/22 06:50:57;;;;;;;21.33;8.85;;;;;;;7.32;63.55;99752.28;4989507;28;106411;-68
2021/10/22 06:53:23;;;;;;;13.35;4.70;;;;;;;7.51;63.17;99764.44;4990154;28;106117;-68
2021/10/22 06:55:49;;;;;;;16.55;4.60;;;;;;;7.67;62.41;99769.81;4990193;28;106135;-67
2021/10/22 06:58:14;;;;;;;6.72;2.88;;;;;;;7.84;62.26;99764.53;4989325;28;106708;-70
2021/10/22 07:00:40;;;;;;;11.07;2.42;;;;;;;8.01;61.74;99768.88;4989299;28;106135;-69
2021/10/22 07:03:05;;;;;;;11.15;2.33;;;;;;;8.14;60.92;99773.69;4990168;28;106261;-68
2021/10/22 07:08:04;;;;;;;6.63;2.35;;;;;;;8.45;60.09;99778.38;4989225;28;106407;-70
2021/10/22 07:10:31;;;;;;;15.43;3.75;;;;;;;8.55;59.28;99781.69;4989003;28;106480;-68
2021/10/22 07:12:57;;;;;;;7.45;2.70;;;;;;;8.74;59.30;99777.03;4989376;28;105963;-70
2021/10/22 07:15:23;;;;;;;8.70;2.42;;;;;;;8.93;58.47;99786.44;4988776;28;106080;-70
2021/10/22 07:17:48;;;;;;;8.63;2.35;;;;;;;9.01;57.45;99782.94;4989118;28;106028;-70
2021/10/22 07:20:15;;;;;;;7.55;1.58;;;;;;;9.11;57.14;99784.41;4988884;28;105903;-68
2021/10/22 07:22:51;;;;;;;5.28;1.45;;;;;;;9.32;57.16;99785.66;4990121;28;105798;-70
2021/10/22 07:25:22;;;;;;;3.88;1.45;;;;;;;9.53;56.81;99793.06;4989611;28;106074;-68
2021/10/22 07:27:49;;;;;;;4.10;1.20;;;;;;;9.80;56.50;99777.59;4989243;28;105815;-70
2021/10/22 07:30:15;;;;;;;4.18;1.30;;;;;;;10.02;55.24;99794.63;4989255;28;106059;-70
2021/10/22 07:32:41;;;;;;;7.90;1.63;;;;;;;10.13;54.75;99786.22;4989586;28;106095;-66
2021/10/22 07:35:07;;;;;;;6.75;1.33;;;;;;;10.28;53.89;99791.63;4989110;28;106137;-66
2021/10/22 07:37:33;;;;;;;4.57;1.42;;;;;;;10.40;53.36;99785.88;4988394;28;106739;-66
2021/10/22 07:39:58;;;;;;;3.28;1.00;;;;;;;10.58;53.25;99790.88;4988394;28;106028;-67
2021/10/22 07:42:25;;;;;;;5.18;1.45;;;;;;;10.76;52.85;99794.06;4988963;28;106101;-66
2021/10/22 07:44:53;;;;;;;7.82;2.50;;;;;;;10.86;51.70;99792.97;4988451;28;105906;-67
2021/10/22 07:47:20;;;;;;;8.02;1.50;;;;;;;11.00;50.62;99794.81;4988247;28;106662;-69
2021/10/22 07:49:49;;;;;;;4.43;1.50;;;;;;;11.21;50.14;99796.78;4988375;28;106382;-67
2021/10/22 07:52:27;;;;;;;6.32;1.40;;;;;;;11.58;50.40;99786.16;4989070;28;106159;-66
2021/10/22 07:54:54;;;;;;;5.15;1.10;;;;;;;11.89;48.95;99809.94;4989205;28;105827;-70
2021/10/22 07:57:20;;;;;;;6.35;1.77;;;;;;;12.73;48.28;99811.16;4988659;28;105976;-68
2021/10/22 07:59:47;;;;;;;6.97;1.80;;;;;;;14.69;45.61;99801.03;4988967;28;105901;-73
2021/10/22 08:02:14;;;;;;;6.13;1.35;;;;;;;17.22;45.88;99795.38;4989918;28;106284;-72
2021/10/22 08:04:44;;;;;;;4.25;1.33;;;;;;;19.31;39.11;99790.44;4989322;28;106289;-75
2021/10/22 08:07:10;;;;;;;6.55;1.50;;;;;;;20.80;36.22;99809.41;4988830;28;106795;-69
2021/10/22 08:09:36;;;;;;;5.68;1.92;;;;;;;20.81;33.23;99808.34;4988366;28;105951;-68
2021/10/22 08:12:02;;;;;;;4.53;0.93;;;;;;;19.18;32.15;99781.53;4989220;28;105899;-66
2021/10/22 08:14:27;;;;;;;4.30;1.83;;;;;;;16.82;33.38;99790.34;4988443;28;106126;-66
2021/10/22 08:16:52;;;;;;;5.95;1.70;;;;;;;15.63;35.04;99796.28;4988535;28;106133;-67
2021/10/22 08:19:18;;;;;;;6.55;1.80;;;;;;;14.56;36.82;99797.28;4988626;28;106085;-67
2021/10/22 08:24:10;;;;;;;4.88;1.30;;;;;;;14.55;38.53;99803.69;4988867;28;105873;-66
2021/10/22 08:26:36;;;;;;;7.03;1.77;;;;;;;14.52;37.27;99790.69;4987976;28;105914;-67
2021/10/22 08:29:02;;;;;;;6.15;1.17;;;;;;;14.56;37.19;99810.69;4988532;28;105779;-67
2021/10/22 08:31:28;;;;;;;4.88;1.10;;;;;;;15.65;37.38;99801.44;4989014;28;106118;-68
2021/10/22 08:33:53;;;;;;;3.47;1.23;;;;;;;18.50;35.30;99801.81;4988722;28;107122;-67
2021/10/22 08:36:19;;;;;;;4.93;1.75;;;;;;;21.16;32.31;99815.38;4988412;28;106586;-69
2021/10/22 08:38:44;;;;;;;6.45;1.60;;;;;;;22.70;29.04;99796.44;4988543;28;106001;-67
2021/10/22 08:41:13;;;;;;;7.50;1.55;;;;;;;23.01;27.01;99791.22;4989268;28;106141;-67
2021/10/22 08:43:40;;;;;;;8.88;1.83;;;;;;;24.51;25.94;99798.78;4988220;28;106321;-69
2021/10/22 08:46:11;;;;;;;7.72;1.35;;;;;;;24.66;24.29;99804.22;4987936;28;105978;-66
2021/10/22 08:48:38;;;;;;;2.15;1.00;;;;;;;25.25;23.52;99815.56;4988000;28;106047;-67
2021/10/22 08:51:05;;;;;;;7.80;1.42;;;;;;;24.41;23.75;99782.44;4988558;28;106409;-68
2021/10/22 08:53:30;;;;;;;5.53;1.10;;;;;;;21.89;24.96;99793.50;4988162;28;106048;-66
2021/10/22 08:55:57;;;;;;;3.45;1.23;;;;;;;21.84;25.36;99790.75;4987957;28;106166;-67
2021/10/22 08:58:23;;;;;;;8.25;1.40;;;;;;;21.56;25.38;99814.28;4987526;28;106309;-67
2021/10/22 09:00:48;;;;;;;6.03;0.88;;;;;;;21.95;26.22;99787.09;4988942;28;106081;-69
2021/10/22 09:03:18;;;;;;;4.00;0.77;;;;;;;22.28;24.84;99785.22;4987683;28;106218;-69
2021/10/22 09:06:01;;;;;;;4.27;1.20;;;;;;;21.81;25.09;99780.41;4987267;28;106376;-69
2021/10/22 09:08:46;;;;;;;4.40;1.38;;;;;;;22.54;24.74;99784.63;4986741;28;106005;-70
2021/10/22 09:11:23;;;;;;;3.63;1.20;;;;;;;23.55;23.66;99771.09;4988052;28;105857;-68
2021/10/22 09:14:13;;;;;;;5.35;1.08;;;;;;;24.60;22.17;99778.06;4987170;28;106564;-70
2021/10/22 09:16:49;;;;;;;4.63;0.93;;;;;;;25.63;21.48;99805.09;4986935;28;106312;-69
2021/10/22 09:19:27;;;;;;;5.55;1.00;;;;;;;26.02;20.03;99760.69;4986397;28;107192;-68
2021/10/22 09:21:52;;;;;;;3.92;1.33;;;;;;;26.37;19.89;99778.97;4987870;28;106321;-68
2021/10/22 09:24:20;;;;;;;3.42;1.25;;;;;;;27.25;19.22;99779.78;4987724;28;106345;-70
2021/10/22 09:26:54;;;;;;;4.32;1.45;;;;;;;27.81;17.61;99767.28;4986867;28;105939;-70
2021/10/22 09:29:22;;;;;;;7.65;1.17;;;;;;;28.10;17.65;99769.09;4986739;28;105903;-69
2021/10/22 09:31:50;;;;;;;4.28;1.58;;;;;;;27.65;17.09;99774.09;4986721;28;106094;-71
2021/10/22 09:34:30;;;;;;;17.65;8.60;;;;;;;28.32;17.15;99765.75;4987109;28;106131;-72
2021/10/22 09:36:59;;;;;;;4.00;1.35;;;;;;;28.40;16.78;99749.72;4986897;28;105945;-71
2021/10/22 09:39:25;;;;;;;3.80;1.00;;;;;;;28.38;16.46;99755.50;4988895;28;106270;-70
2021/10/22 09:41:58;;;;;;;6.95;2.85;;;;;;;28.59;16.26;99761.44;4991003;28;105958;-71
2021/10/22 09:44:33;;;;;;;5.70;1.38;;;;;;;29.16;15.78;99763.16;4990491;28;106210;-67
2021/10/22 09:47:04;;;;;;;5.07;1.00;;;;;;;30.25;15.60;99750.59;4990202;28;106743;-69
2021/10/22 09:49:35;;;;;;;3.33;1.00;;;;;;;31.12;14.47;99745.56;4990253;28;105973;-70
2021/10/22 09:52:01;;;;;;;8.45;0.95;;;;;;;31.67;14.28;99760.78;4991069;28;105922;-68
2021/10/22 09:54:29;;;;;;;4.53;0.80;;;;;;;31.94;13.89;99747.81;4990428;28;106299;-68
2021/10/22 09:56:56;;;;;;;1.65;0.63;;;;;;;31.67;13.88;99759.94;4990492;28;106405;-68
2021/10/22 09:59:24;;;;;;;4.60;0.70;;;;;;;31.66;13.21;99777.63;4990297;28;106124;-70
2021/10/22 10:01:52;;;;;;;4.63;0.90;;;;;;;31.12;13.47;99725.50;4991034;28;106483;-72
2021/10/22 10:04:17;;;;;;;3.92;0.90;;;;;;;29.06;14.37;99741.41;4990570;28;105900;-69
2021/10/22 10:06:46;;;;;;;7.07;0.93;;;;;;;28.95;15.25;99762.72;4984536;28;106138;-66
2021/10/22 11:50:29;;;;;;;5.68;1.48;;;;;;;15.02;30.74;99693.72;5007212;28;105821;-69
2021/10/22 11:53:13;;;;;;;4.60;1.40;;;;;;;15.64;31.57;99692.41;5005367;28;106053;-70
2021/10/22 11:55:40;;;;;;;3.15;1.17;;;;;;;17.02;28.29;99676.38;5004939;28;106098;-68
2021/10/22 11:58:08;;;;;;;5.25;1.20;;;;;;;16.22;29.62;99700.31;5004086;28;106332;-66
2021/10/22 12:00:46;;;;;;;3.05;0.98;;;;;;;15.09;31.01;99688.34;5004517;28;106137;-67
2021/10/22 12:03:11;;;;;;;2.70;1.20;;;;;;;14.53;32.20;99687.81;5005460;28;105946;-68
2021/10/22 12:05:41;;;;;;;2.13;1.10;;;;;;;17.22;30.30;99679.66;5005340;28;105872;-69
2021/10/22 12:08:07;;;;;;;4.00;1.47;;;;;;;21.68;24.53;99675.94;5004558;28;105944;-70
2021/10/22 12:10:37;;;;;;;6.47;1.48;;;;;;;21.14;23.39;99673.97;5004684;28;105966;-72
2021/10/22 12:13:02;;;;;;;2.42;1.20;;;;;;;22.08;23.06;99671.13;5005439;28;106260;-69
2021/10/22 12:15:30;;;;;;;4.57;1.50;;;;;;;21.11;23.14;99667.16;5004361;28;106244;-68
2021/10/22 12:18:01;;;;;;;6.10;1.88;;;;;;;18.65;25.91;99672.69;5004520;28;105771;-69
2021/10/22 12:20:28;;;;;;;5.85;1.48;;;;;;;17.11;28.24;99696.53;5003805;28;106487;-70
2021/10/22 12:22:57;;;;;;;5.22;2.10;;;;;;;16.24;29.46;99687.44;5005161;28;105938;-70
2021/10/22 12:25:24;;;;;;;4.47;1.45;;;;;;;19.05;27.15;99681.91;5004501;28;106133;-72
2021/10/22 12:28:00;;;;;;;2.40;1.02;;;;;;;19.67;25.04;99664.16;5004058;28;106908;-67
2021/10/22 12:30:27;;;;;;;4.22;1.30;;;;;;;21.93;23.79;99678.03;5003696;28;106104;-68
2021/10/22 12:32:55;;;;;;;2.17;1.20;;;;;;;20.32;24.32;99679.06;5005170;28;106020;-68
2021/10/22 12:35:28;;;;;;;4.28;1.10;;;;;;;17.86;26.88;99671.06;5004480;28;105988;-69
2021/10/22 12:38:03;;;;;;;6.55;1.80;;;;;;;17.05;28.39;99662.47;5004264;28;106572;-69
2021/10/22 12:40:35;;;;;;;4.75;1.25;;;;;;;15.95;29.81;99680.03;5003933;28;106303;-67
2021/10/22 12:43:16;;;;;;;5.65;2.05;;;;;;;16.01;30.03;99665.75;5005494;28;105853;-67
2021/10/22 12:45:46;;;;;;;3.75;1.30;;;;;;;16.65;29.22;99650.25;5004441;28;105873;-69
2021/10/22 12:48:13;;;;;;;3.63;1.45;;;;;;;17.06;29.11;99653.34;5003756;28;106245;-69
2021/10/22 12:50:40;;;;;;;6.78;1.80;;;;;;;18.96;27.27;99650.94;5003793;28;105758;-73
2021/10/22 12:53:14;;;;;;;3.47;1.33;;;;;;;20.49;25.24;99648.44;5004944;28;106147;-66
2021/10/22 12:55:44;;;;;;;2.45;1.13;;;;;;;22.50;22.49;99645.09;5004437;28;106172;-66
2021/10/22 12:58:21;;;;;;;8.50;2.22;;;;;;;24.68;20.88;99643.28;5003712;28;105935;-66
2021/10/22 13:01:07;;;;;;;5.55;1.70;;;;;;;25.64;18.72;99634.91;4993332;28;106350;-64
2021/10/22 13:03:33;;;;;;;6.05;2.20;;;;;;;25.89;17.92;99638.53;4991378;28;105873;-68
2021/10/22 13:06:13;;;;;;;2.92;1.10;;;;;;;23.85;19.05;99634.38;4991191;28;105782;-71
2021/10/22 13:08:51;;;;;;;5.88;0.98;;;;;;;21.75;21.15;99654.03;4990980;28;106257;-68
2021/10/22 13:12:34;;;;;;;6.03;1.10;;;;;;;20.05;22.96;99657.28;4991024;28;105983;-70
2021/10/22 13:22:16;;;;;;;3.10;1.25;;;;;;;18.24;26.59;99648.28;4990490;28;106190;-65
2021/10/22 13:24:41;;;;;;;3.20;1.15;;;;;;;20.33;24.09;99658.25;4991274;28;105899;-68
2021/10/22 13:27:07;;;;;;;3.38;1.15;;;;;;;21.04;22.50;99625.91;4990515;28;106183;-67
2021/10/22 13:29:33;;;;;;;10.00;1.40;;;;;;;20.67;22.22;99641.94;4990174;28;106325;-65
